• Join FlightAware (Why Join?)
  • Login
  • US Flag 
11:48PM EDT


 

Airport Tracker/Info


-or-


 

Live Flight TrackerFlight Track Log ✈ FFT750 ✈ 19-May-2013 ✈ KDEN - KOMA

Flight Track Log - Related Links

Times and Time Zones

All times are in EDT time to prevent confusion due to time zone crossing. See the FFT750 flight status page for this flight to view local times or setup timezone preferences in your user account.

Time Position Orientation Groundspeed Altitude Reporting Facility
EDT Latitude Longitude Course Direction KTS MPH feet Rate Location/Type
12:49PM 39.9167 -104.6667 50° Northeast 184 212 6,900  Level Denver TRACON
12:49PM 39.9303 -104.6458 50° Northeast 187 215 7,100 1,380 Climbing Denver Center
12:50PM 39.9500 -104.5833 68° East 269 310 8,300 1,620 Climbing Denver TRACON
12:51PM 39.9500 -104.4833 90° East 306 352 10,000 1,680 Climbing Denver TRACON
12:52PM 39.9500 -104.3667 90° East 331 381 11,600 1,920 Climbing Denver TRACON
12:52PM 39.9603 -104.3172 75° East 332 382 12,700 2,580 Climbing Denver Center
12:53PM 39.9481 -104.1881 97° East 360 414 15,500 2,700 Climbing Denver Center
12:54PM 39.9306 -104.0450 99° East 371 427 18,400 2,700 Climbing Denver Center
12:55PM 39.9133 -103.9089 99° East 380 437 21,200 2,460 Climbing Denver Center
12:56PM 39.9206 -103.7603 86° East 388 447 23,600 2,160 Climbing Denver Center
12:57PM 39.9353 -103.6119 83° East 393 452 25,700 2,100 Climbing Denver Center
12:59PM 39.9497 -103.4711 82° East 408 470 28,000 1,560 Climbing Denver Center
01:00PM 39.9661 -103.3083 82° East 407 468 29,000 480 Climbing Denver Center
01:01PM 39.9800 -103.1658 83° East 412 474 29,000  Level Denver Center
01:02PM 40.0158 -103.0067 74° East 412 474 29,100 900 Climbing Denver Center
01:03PM 40.0500 -102.8667 72° East 422 486 30,900 1,860 Climbing Denver Center
01:04PM 40.0797 -102.7289 74° East 412 474 33,000 960 Climbing Denver Center
01:05PM 40.1161 -102.5667 74° East 419 482 33,000  Level Denver Center
01:06PM 40.1489 -102.4233 73° East 428 493 33,000 60 Level Denver Center
01:07PM 40.1872 -102.2581 73° East 429 494 33,200 480 Climbing Denver Center
01:08PM 40.2186 -102.1125 74° East 433 498 34,000 960 Climbing Denver Center
01:09PM 40.2575 -101.9364 74° East 451 519 35,300 1,020 Climbing Denver Center
01:10PM 40.2900 -101.7817 75° East 459 528 36,200 1,140 Climbing Denver Center
01:11PM 40.3297 -101.6033 74° East 458 527 37,700 1,080 Climbing Denver Center
01:12PM 40.3625 -101.4472 75° East 462 532 38,500 600 Climbing Denver Center
01:13PM 40.4006 -101.2700 74° East 455 524 39,000 180 Climbing Denver Center
01:14PM 40.4325 -101.1192 74° East 451 519 39,000  Level Denver Center
01:15PM 40.4744 -100.9189 75° East 450 518 39,000  Level Denver Center
01:16PM 40.5103 -100.7433 75° East 450 518 39,000  Level Denver Center
01:17PM 40.5414 -100.5933 75° East 449 517 39,000  Level Denver Center
01:18PM 40.5772 -100.4164 75° East 451 519 39,000  Level Denver Center
01:19PM 40.6089 -100.2639 75° East 455 524 39,000  Level Denver Center
01:20PM 40.6444 -100.0861 75° East 453 521 39,100  Climbing Denver Center
01:21PM 40.6758 -99.9342 75° East 451 519 39,000 -120 Descending Denver Center
01:22PM 40.7097 -99.7556 76° East 446 513 38,900 -300 Descending Denver Center
01:24PM 40.7414 -99.5978 75° East 447 514 38,500 -540 Descending Denver Center
01:25PM 40.7731 -99.4383 75° East 448 516 37,900 -780 Descending Denver Center
01:26PM 40.8039 -99.2764 76° East 453 521 37,000 -1,020 Descending Denver Center
01:27PM 40.8344 -99.1189 76° East 454 522 35,900 -1,200 Descending Denver Center
01:27PM 40.8564 -99.0003 76° East 450 518 35,100 -600 Descending Minneapolis Center
01:28PM 40.8850 -98.8469 76° East 437 503 35,000 -60 Descending Minneapolis Center
01:29PM 40.9128 -98.6914 77° East 435 501 35,000  Level Minneapolis Center
01:30PM 40.9436 -98.5367 75° East 435 501 35,000 -120 Level Minneapolis Center
01:31PM 40.9719 -98.3792 77° East 433 498 34,800 -540 Descending Minneapolis Center
01:32PM 41.0056 -98.2289 73° East 429 494 33,900 -1,200 Descending Minneapolis Center
01:33PM 41.0469 -98.0789 70° East 433 498 32,400 -1,800 Descending Minneapolis Center
01:35PM 41.0944 -97.9047 70° East 427 491 29,900 -2,220 Descending Minneapolis Center
01:36PM 41.1394 -97.7353 71° East 415 478 27,500 -1,320 Descending Minneapolis Center
01:37PM 41.1761 -97.5939 71° East 410 472 27,000 -240 Descending Minneapolis Center
01:38PM 41.2197 -97.4264 71° East 405 466 27,000 -600 Level Minneapolis Center
01:39PM 41.2481 -97.3164 71° East 401 461 25,800 -2,400 Descending Minneapolis Center
01:40PM 41.2889 -97.1453 72° East 401 461 22,100 -3,480 Descending Minneapolis Center
01:41PM 41.2761 -96.9808 96° East 400 460 18,900 -3,360 Descending Minneapolis Center
01:42PM 41.2792 -96.8889 87° East 402 463 16,900 -2,580 Descending Minneapolis Center
01:42PM 41.2925 -96.8167 76° East 403 464 16,100 -2,280 Descending Minneapolis Center
01:42PM 41.2822 -96.7583 103° East 384 442 14,900 -2,340 Descending Minneapolis Center
01:43PM 41.2947 -96.6789 78° East 389 448 13,700 -2,700 Descending Minneapolis Center
01:44PM 41.2864 -96.6194 101° East 340 391 11,900 -2,760 Descending Minneapolis Center
01:44PM 41.2964 -96.5547 78° East 363 418 10,300 -2,340 Descending Minneapolis Center
01:45PM 41.2994 -96.4878 87° East 313 360 9,300 -2,280 Descending Minneapolis Center
01:45PM 41.3142 -96.4161 75° East 335 386 8,000 -2,520 Descending Minneapolis Center
01:46PM 41.3150 -96.3667 89° East 308 354 6,800 -1,860 Descending Minneapolis Center
01:46PM 41.3283 -96.3058 74° East 317 365 6,100 -1,080 Descending Minneapolis Center
01:47PM 41.3397 -96.2150 80° East 281 323 5,000 -1,200 Descending Minneapolis Center
01:48PM 41.3503 -96.1283 81° East 250 288 3,700 -840 Descending Minneapolis Center
01:49PM 41.3606 -96.0444 81° East 238 274 3,400 -540 Descending Minneapolis Center
01:50PM 41.3619 -96.0172 86° East 195 224 3,000 -1,020 Descending Minneapolis Center
01:51PM 41.3686 -95.9669 80° East 217 250 2,400 -900 Descending Minneapolis Center
01:51PM 41.3558 -95.9569 150° Southeast 160 184 2,100 -780 Descending Minneapolis Center
01:52PM 41.3333 -95.9239 132° Southeast 159 183 1,500 -600 Descending Minneapolis Center
01:53PM 41.3033 -95.8964 145° Southeast 139 160 1,000 -540 Descending Minneapolis Center
01:55PM 41.3032 -95.8941 90° East  Level Estimated